createdAt,value
2018-06-23T00:01:26.800Z,6.90
2018-06-23T00:03:55.520Z,6.93
2018-06-23T00:06:24.138Z,7.00
2018-06-23T00:08:52.780Z,6.30
2018-06-23T00:11:21.383Z,6.40
2018-06-23T00:13:50.003Z,5.80
2018-06-23T00:16:18.615Z,6.40
2018-06-23T00:18:47.190Z,6.10
2018-06-23T00:21:15.787Z,5.40
2018-06-23T00:23:44.388Z,5.60
2018-06-23T00:26:18.307Z,6.33
2018-06-23T00:28:46.867Z,5.60
2018-06-23T00:31:15.496Z,6.30
2018-06-23T00:33:44.099Z,5.37
2018-06-23T00:36:12.718Z,5.10
2018-06-23T00:38:41.340Z,4.87
2018-06-23T00:41:09.932Z,5.10
2018-06-23T00:43:38.491Z,4.80
2018-06-23T00:46:07.151Z,5.00
2018-06-23T00:48:35.851Z,5.17
2018-06-23T00:51:04.435Z,4.43
2018-06-23T00:53:33.032Z,4.20
2018-06-23T00:56:01.899Z,4.67
2018-06-23T00:58:37.179Z,6.80
2018-06-23T01:01:05.818Z,3.50
2018-06-23T01:03:34.464Z,4.10
2018-06-23T01:06:03.154Z,3.43
2018-06-23T01:08:31.779Z,4.33
2018-06-23T01:11:00.363Z,3.17
2018-06-23T01:13:29.010Z,3.90
2018-06-23T01:15:57.609Z,4.70
2018-06-23T01:18:26.191Z,4.43
2018-06-23T01:20:54.795Z,3.57
2018-06-23T01:23:23.344Z,3.60
2018-06-23T01:25:51.923Z,3.70
2018-06-23T01:28:20.622Z,4.07
2018-06-23T01:30:49.227Z,4.10
2018-06-23T01:33:17.798Z,5.47
2018-06-23T01:35:46.455Z,3.60
2018-06-23T01:38:15.063Z,3.40
2018-06-23T01:40:43.642Z,3.30
2018-06-23T01:43:12.224Z,3.33
2018-06-23T01:45:40.830Z,3.47
2018-06-23T01:48:09.446Z,4.20
2018-06-23T01:50:38.010Z,3.43
2018-06-23T01:53:06.644Z,3.10
2018-06-23T01:55:35.252Z,3.30
2018-06-23T01:58:03.912Z,5.30
2018-06-23T02:00:32.542Z,3.67
2018-06-23T02:03:01.204Z,3.47
2018-06-23T02:05:29.824Z,3.07
2018-06-23T02:07:58.406Z,2.60
2018-06-23T02:10:27.006Z,2.97
2018-06-23T02:12:55.634Z,3.33
2018-06-23T02:16:33.523Z,2.70
2018-06-23T02:19:07.657Z,2.27
2018-06-23T02:21:41.629Z,4.10
2018-06-23T02:24:15.489Z,2.47
2018-06-23T02:26:49.203Z,2.40
2018-06-23T02:29:23.023Z,5.40
2018-06-23T02:31:56.851Z,3.17
2018-06-23T02:34:30.725Z,2.20
2018-06-23T02:36:59.415Z,2.60
2018-06-23T02:39:28.013Z,2.40
2018-06-23T02:41:56.597Z,2.40
2018-06-23T02:44:25.194Z,2.20
2018-06-23T02:46:53.806Z,3.53
2018-06-23T02:49:22.606Z,2.20
2018-06-23T02:51:51.182Z,3.30
2018-06-23T02:54:19.784Z,3.63
2018-06-23T02:56:48.670Z,3.13
2018-06-23T02:59:19.433Z,2.50
2018-06-23T03:01:49.236Z,2.87
2018-06-23T03:04:18.465Z,2.17
2018-06-23T03:06:47.067Z,1.90
2018-06-23T03:09:15.641Z,2.37
2018-06-23T03:11:44.233Z,2.07
2018-06-23T03:14:12.811Z,3.50
2018-06-23T03:16:41.400Z,5.93
2018-06-23T03:19:10.010Z,3.60
2018-06-23T03:21:38.601Z,2.80
2018-06-23T03:24:07.203Z,2.30
2018-06-23T03:26:35.770Z,2.60
2018-06-23T03:29:04.525Z,2.60
2018-06-23T03:31:33.202Z,2.47
2018-06-23T03:34:01.806Z,2.90
2018-06-23T03:36:30.410Z,3.73
2018-06-23T03:38:59.022Z,4.20
2018-06-23T03:41:27.615Z,3.07
2018-06-23T03:43:56.174Z,3.17
2018-06-23T03:46:24.765Z,3.37
2018-06-23T03:48:53.356Z,5.50
2018-06-23T03:51:21.995Z,3.97
2018-06-23T03:53:50.621Z,4.63
2018-06-23T03:56:19.242Z,4.60
2018-06-23T03:58:47.874Z,4.37
2018-06-23T04:01:16.465Z,4.33
2018-06-23T04:03:45.088Z,4.10
2018-06-23T04:06:13.723Z,4.20
2018-06-23T04:08:42.336Z,4.43
2018-06-23T04:11:11.030Z,4.07
2018-06-23T04:13:39.665Z,4.53
2018-06-23T04:16:08.302Z,4.20
2018-06-23T04:18:36.909Z,5.13
2018-06-23T04:21:05.590Z,4.80
2018-06-23T04:23:34.155Z,5.30
2018-06-23T04:26:02.788Z,4.90
2018-06-23T04:28:31.394Z,5.60
2018-06-23T04:31:00.927Z,5.40
2018-06-23T04:33:29.499Z,5.03
2018-06-23T04:35:58.071Z,6.07
2018-06-23T04:38:26.694Z,6.30
2018-06-23T04:40:55.302Z,5.70
2018-06-23T04:43:23.955Z,5.70
2018-06-23T04:45:52.552Z,5.90
2018-06-23T04:48:21.155Z,6.03
2018-06-23T04:50:50.634Z,5.70
2018-06-23T04:53:19.577Z,6.13
2018-06-23T04:55:49.993Z,5.63
2018-06-23T04:58:18.561Z,6.47
2018-06-23T05:00:47.168Z,6.60
2018-06-23T05:03:15.837Z,7.63
2018-06-23T05:05:44.483Z,7.77
2018-06-23T05:08:13.060Z,6.70
2018-06-23T05:10:41.655Z,7.73
2018-06-23T05:13:10.264Z,8.07
2018-06-23T05:15:38.911Z,8.27
2018-06-23T05:18:07.476Z,7.63
2018-06-23T05:20:36.190Z,7.57
2018-06-23T05:23:04.809Z,7.43
2018-06-23T05:25:33.399Z,7.80
2018-06-23T05:28:02.118Z,7.23
2018-06-23T05:30:30.789Z,8.03
2018-06-23T05:32:59.434Z,8.40
2018-06-23T05:35:28.053Z,8.40
2018-06-23T05:37:56.727Z,8.87
2018-06-23T05:40:25.334Z,9.37
2018-06-23T05:42:54.002Z,9.17
2018-06-23T05:45:22.650Z,9.90
2018-06-23T05:47:51.311Z,10.30
2018-06-23T05:50:19.993Z,10.23
2018-06-23T05:52:48.667Z,9.87
2018-06-23T05:55:17.262Z,11.73
2018-06-23T05:57:45.907Z,10.43
2018-06-23T06:00:14.527Z,11.20
2018-06-23T06:02:43.199Z,11.30
2018-06-23T06:05:11.834Z,10.80
2018-06-23T06:07:40.457Z,11.63
2018-06-23T06:10:09.104Z,11.40
2018-06-23T06:12:37.722Z,12.03
2018-06-23T06:15:06.497Z,11.90
2018-06-23T06:17:36.366Z,11.60
2018-06-23T06:20:06.701Z,13.80
2018-06-23T06:22:39.493Z,13.77
2018-06-23T06:25:08.819Z,12.33
2018-06-23T06:27:37.514Z,13.57
2018-06-23T06:30:07.274Z,13.47
2018-06-23T06:32:36.183Z,14.47
2018-06-23T06:35:05.161Z,15.03
2018-06-23T06:37:33.816Z,13.93
2018-06-23T06:40:02.484Z,15.00
2018-06-23T06:42:31.099Z,14.00
2018-06-23T06:44:59.711Z,14.93
2018-06-23T06:47:28.347Z,15.03
2018-06-23T06:49:56.942Z,14.37
2018-06-23T06:52:25.515Z,14.93
2018-06-23T06:54:54.179Z,14.00
2018-06-23T06:57:23.020Z,15.67
2018-06-23T06:59:51.633Z,14.43
2018-06-23T07:02:20.283Z,14.90
2018-06-23T07:04:49.014Z,16.50
2018-06-23T07:07:17.676Z,16.10
2018-06-23T07:09:46.502Z,14.77
2018-06-23T07:12:15.130Z,14.43
2018-06-23T07:14:43.967Z,14.43
2018-06-23T07:17:12.770Z,14.20
2018-06-23T07:19:41.499Z,13.97
2018-06-23T07:22:10.472Z,13.20
2018-06-23T07:24:39.281Z,14.23
2018-06-23T07:27:07.950Z,14.03
2018-06-23T07:29:36.580Z,12.50
2018-06-23T07:32:05.450Z,10.30
2018-06-23T07:34:34.213Z,9.60
2018-06-23T07:37:02.771Z,9.73
2018-06-23T07:39:31.590Z,9.43
2018-06-23T07:42:00.182Z,9.73
2018-06-23T07:44:28.782Z,9.97
2018-06-23T07:46:57.382Z,10.47
2018-06-23T07:49:26.191Z,10.37
2018-06-23T07:51:54.788Z,10.13
2018-06-23T07:54:24.039Z,10.80
2018-06-23T07:56:52.715Z,8.80
2018-06-23T07:59:21.286Z,8.63
2018-06-23T08:01:49.970Z,9.43
2018-06-23T08:04:18.563Z,9.13
2018-06-23T08:06:47.191Z,9.07
2018-06-23T08:09:15.851Z,9.37
2018-06-23T08:11:44.512Z,8.17
2018-06-23T08:14:13.482Z,8.67
2018-06-23T08:16:42.564Z,8.30
2018-06-23T08:19:11.145Z,7.60
2018-06-23T08:21:39.740Z,7.60
2018-06-23T08:24:08.487Z,6.70
2018-06-23T08:26:37.291Z,6.73
2018-06-23T08:29:05.850Z,6.10
2018-06-23T08:31:34.539Z,6.87
2018-06-23T08:34:03.253Z,8.60
2018-06-23T08:36:31.870Z,8.13
2018-06-23T08:39:00.507Z,6.13
2018-06-23T08:41:29.100Z,6.10
2018-06-23T08:43:57.963Z,5.60
2018-06-23T08:46:26.591Z,5.90
2018-06-23T08:48:55.188Z,5.57
2018-06-23T08:51:23.852Z,6.93
2018-06-23T08:53:52.483Z,6.03
2018-06-23T08:56:21.082Z,5.70
2018-06-23T08:58:49.787Z,5.50
2018-06-23T09:01:18.396Z,5.50
2018-06-23T09:03:47.002Z,5.40
2018-06-23T09:06:15.630Z,5.00
2018-06-23T09:08:44.235Z,9.13
2018-06-23T09:11:12.914Z,6.53
2018-06-23T09:13:42.258Z,4.53
2018-06-23T09:16:10.907Z,4.67
2018-06-23T09:18:40.355Z,4.10
2018-06-23T09:21:08.984Z,6.40
2018-06-23T09:23:37.626Z,5.07
2018-06-23T09:26:06.300Z,4.03
2018-06-23T09:28:34.900Z,6.43
2018-06-23T09:31:03.482Z,6.07
2018-06-23T09:33:32.090Z,4.77
2018-06-23T09:36:00.707Z,4.80
2018-06-23T09:38:29.596Z,4.60
2018-06-23T09:40:58.214Z,4.27
2018-06-23T09:43:26.798Z,7.87
2018-06-23T09:45:55.503Z,8.00
2018-06-23T09:48:24.064Z,6.70
2018-06-23T09:50:52.671Z,9.43
2018-06-23T09:53:22.588Z,5.07
2018-06-23T09:55:51.305Z,6.93
2018-06-23T09:58:20.118Z,8.80
2018-06-23T10:00:48.691Z,6.13
2018-06-23T10:03:17.428Z,3.77
2018-06-23T10:05:46.331Z,4.37
2018-06-23T10:08:14.946Z,6.27
2018-06-23T10:10:44.133Z,4.43
2018-06-23T10:13:12.815Z,4.50
2018-06-23T10:15:42.111Z,4.00
2018-06-23T10:18:10.739Z,3.93
2018-06-23T10:20:39.431Z,3.83
2018-06-23T10:23:08.138Z,5.97
2018-06-23T10:25:36.824Z,4.97
2018-06-23T10:28:05.760Z,4.53
2018-06-23T10:30:34.377Z,5.80
2018-06-23T10:33:03.259Z,6.87
2018-06-23T10:35:31.879Z,4.30
2018-06-23T10:38:00.627Z,6.60
2018-06-23T10:40:29.258Z,4.17
2018-06-23T10:42:57.866Z,5.37
2018-06-23T10:45:26.616Z,3.75
2018-06-23T10:47:55.249Z,3.67
2018-06-23T10:50:23.858Z,3.72
2018-06-23T10:52:52.476Z,3.80
2018-06-23T10:55:21.093Z,3.60
2018-06-23T10:57:49.721Z,4.20
2018-06-23T11:00:18.343Z,4.00
2018-06-23T11:02:46.970Z,4.67
2018-06-23T11:05:15.719Z,4.65
2018-06-23T11:07:44.395Z,3.10
2018-06-23T11:10:13.536Z,6.15
2018-06-23T11:12:42.137Z,4.55
2018-06-23T11:15:10.824Z,3.90
2018-06-23T11:17:39.811Z,3.60
2018-06-23T11:20:08.450Z,3.77
2018-06-23T11:22:37.045Z,5.50
2018-06-23T11:25:06.089Z,5.17
2018-06-23T11:27:34.731Z,4.03
2018-06-23T11:30:03.492Z,4.03
2018-06-23T11:32:32.061Z,5.30
2018-06-23T11:35:00.679Z,5.47
2018-06-23T11:37:29.283Z,3.80
2018-06-23T11:39:57.970Z,3.80
2018-06-23T11:42:26.641Z,5.63
2018-06-23T11:44:55.320Z,4.50
2018-06-23T11:47:24.173Z,3.90
2018-06-23T11:49:53.042Z,4.90
2018-06-23T11:52:21.665Z,3.13
2018-06-23T11:54:50.239Z,3.83
2018-06-23T11:57:18.950Z,3.97
2018-06-23T11:59:47.537Z,4.53
2018-06-23T12:02:16.256Z,3.62
2018-06-23T12:04:44.838Z,3.73
2018-06-23T12:07:13.436Z,6.60
2018-06-23T12:09:42.032Z,3.87
2018-06-23T12:12:10.658Z,4.10
2018-06-23T12:14:39.261Z,4.72
2018-06-23T12:17:07.837Z,3.73
2018-06-23T12:19:36.463Z,3.80
2018-06-23T12:22:05.100Z,4.25
2018-06-23T12:24:33.702Z,3.67
2018-06-23T12:27:02.288Z,3.30
2018-06-23T12:29:31.799Z,3.63
2018-06-23T12:32:01.212Z,4.20
2018-06-23T12:34:29.867Z,4.37
2018-06-23T12:36:58.510Z,4.23
2018-06-23T12:39:27.581Z,2.63
2018-06-23T12:41:56.416Z,3.30
2018-06-23T12:44:25.096Z,3.70
2018-06-23T12:46:54.234Z,2.87
2018-06-23T12:49:22.822Z,4.30
2018-06-23T12:51:51.567Z,2.90
2018-06-23T12:54:20.155Z,3.17
2018-06-23T12:56:48.808Z,3.23
2018-06-23T12:59:17.611Z,2.67
2018-06-23T13:01:46.271Z,3.07
2018-06-23T13:04:14.934Z,2.90
2018-06-23T13:06:43.883Z,2.80
2018-06-23T13:09:13.118Z,3.43
2018-06-23T13:11:41.808Z,3.10
2018-06-23T13:14:10.689Z,4.63
2018-06-23T13:16:39.328Z,3.90
2018-06-23T13:19:07.915Z,3.63
2018-06-23T13:21:36.615Z,3.47
2018-06-23T13:24:05.333Z,5.53
2018-06-23T13:26:34.035Z,2.97
2018-06-23T13:29:02.791Z,2.63
2018-06-23T13:31:31.786Z,2.17
2018-06-23T13:34:01.512Z,2.40
2018-06-23T13:36:30.131Z,4.07
2018-06-23T13:38:58.896Z,3.30
2018-06-23T13:41:27.550Z,2.90
2018-06-23T13:43:56.132Z,3.67
2018-06-23T13:46:24.843Z,3.03
2018-06-23T13:48:53.444Z,3.77
2018-06-23T13:51:22.067Z,2.80
2018-06-23T13:53:50.668Z,3.13
2018-06-23T13:56:19.274Z,2.70
2018-06-23T13:58:47.978Z,2.00
2018-06-23T14:01:16.601Z,2.30
2018-06-23T14:03:45.296Z,3.27
2018-06-23T14:06:14.012Z,2.77
2018-06-23T14:08:42.603Z,3.03
2018-06-23T14:11:11.282Z,2.67
2018-06-23T14:13:39.952Z,2.93
2018-06-23T14:16:08.605Z,2.10
2018-06-23T14:18:37.208Z,3.07
2018-06-23T14:21:05.875Z,1.87
2018-06-23T14:23:34.570Z,2.23
2018-06-23T14:26:03.250Z,2.70
2018-06-23T14:28:31.862Z,2.40
2018-06-23T14:31:00.534Z,2.17
2018-06-23T14:33:29.120Z,2.27
2018-06-23T14:35:58.707Z,1.73
2018-06-23T14:38:27.328Z,1.87
2018-06-23T14:40:55.991Z,2.00
2018-06-23T14:43:24.593Z,1.90
2018-06-23T14:45:53.226Z,1.87
2018-06-23T14:48:21.870Z,1.70
2018-06-23T14:50:50.518Z,3.33
2018-06-23T14:53:19.099Z,1.93
2018-06-23T14:55:47.930Z,2.87
2018-06-23T14:58:16.596Z,2.20
2018-06-23T15:00:45.211Z,3.10
2018-06-23T15:03:14.013Z,2.37
2018-06-23T15:05:42.597Z,2.73
2018-06-23T15:08:23.224Z,2.27
2018-06-23T15:11:02.955Z,3.37
2018-06-23T15:13:31.605Z,2.50
2018-06-23T15:16:00.248Z,2.10
2018-06-23T15:18:28.877Z,3.83
2018-06-23T15:20:57.691Z,2.03
2018-06-23T15:23:26.313Z,4.60
2018-06-23T15:25:54.924Z,2.00
2018-06-23T15:28:23.606Z,2.23
2018-06-23T15:30:52.193Z,4.40
2018-06-23T15:33:21.110Z,2.50
2018-06-23T15:35:49.718Z,2.53
2018-06-23T15:38:18.363Z,4.03
2018-06-23T15:40:46.921Z,2.63
2018-06-23T15:43:15.669Z,5.80
2018-06-23T15:45:44.315Z,2.63
2018-06-23T15:48:12.877Z,3.70
2018-06-23T15:50:41.483Z,2.50
2018-06-23T15:53:10.189Z,4.13
2018-06-23T15:55:39.124Z,2.97
2018-06-23T15:58:08.020Z,2.40
2018-06-23T16:00:37.453Z,2.27
2018-06-23T16:03:06.282Z,2.40
2018-06-23T16:05:35.479Z,2.30
2018-06-23T16:08:04.807Z,6.53
2018-06-23T16:10:34.432Z,3.57
2018-06-23T16:13:03.109Z,2.30
2018-06-23T16:15:31.806Z,2.30
2018-06-23T16:18:00.432Z,4.77
2018-06-23T16:20:29.428Z,3.93
2018-06-23T16:22:58.466Z,2.23
2018-06-23T16:25:28.027Z,3.20
2018-06-23T16:27:57.129Z,2.60
2018-06-23T16:30:26.650Z,1.97
2018-06-23T16:32:55.495Z,3.20
2018-06-23T16:35:24.489Z,3.00
2018-06-23T16:37:53.095Z,2.50
2018-06-23T16:40:21.972Z,2.70
2018-06-23T16:42:50.627Z,2.47
2018-06-23T16:45:19.658Z,2.90
2018-06-23T16:47:48.879Z,3.00
2018-06-23T16:50:17.756Z,7.93
2018-06-23T16:52:46.997Z,5.77
2018-06-23T16:55:15.779Z,3.73
2018-06-23T16:57:44.398Z,3.60
2018-06-23T17:00:13.230Z,3.47
2018-06-23T17:02:43.980Z,4.07
2018-06-23T17:05:12.664Z,3.77
2018-06-23T17:07:41.451Z,2.57
2018-06-23T17:10:10.200Z,3.60
2018-06-23T17:12:39.007Z,4.40
2018-06-23T17:15:07.730Z,3.10
2018-06-23T17:17:36.368Z,2.70
2018-06-23T17:20:05.190Z,3.30
2018-06-23T17:22:34.557Z,4.53
2018-06-23T17:25:03.268Z,6.67
2018-06-23T17:27:31.950Z,3.40
2018-06-23T17:30:00.867Z,4.50
2018-06-23T17:32:29.479Z,3.47
2018-06-23T17:34:58.428Z,3.80
2018-06-23T17:37:27.564Z,2.63
2018-06-23T17:39:56.256Z,2.77
2018-06-23T17:42:24.864Z,2.67
2018-06-23T17:44:53.556Z,3.40
2018-06-23T17:47:22.229Z,3.47
2018-06-23T17:49:50.948Z,5.80
2018-06-23T17:52:19.742Z,2.77
2018-06-23T17:54:48.486Z,4.80
2018-06-23T17:57:17.326Z,4.00
2018-06-23T17:59:46.242Z,3.27
2018-06-23T18:02:14.976Z,5.80
2018-06-23T18:04:43.622Z,3.07
2018-06-23T18:07:12.413Z,4.70
2018-06-23T18:09:41.094Z,3.63
2018-06-23T18:12:10.190Z,5.30
2018-06-23T18:14:39.356Z,3.53
2018-06-23T18:17:08.099Z,5.20
2018-06-23T18:19:36.820Z,6.30
2018-06-23T18:22:05.615Z,3.50
2018-06-23T18:24:34.367Z,2.63
2018-06-23T18:27:03.247Z,3.97
2018-06-23T18:29:31.985Z,3.20
2018-06-23T18:32:00.717Z,4.50
2018-06-23T18:34:30.398Z,2.97
2018-06-23T18:36:59.163Z,5.90
2018-06-23T18:39:28.038Z,2.70
2018-06-23T18:41:56.882Z,3.60
2018-06-23T18:44:25.579Z,4.43
2018-06-23T18:46:54.800Z,2.70
2018-06-23T18:49:23.554Z,3.40
2018-06-23T18:51:52.299Z,2.70
2018-06-23T18:54:20.949Z,4.80
2018-06-23T18:56:49.627Z,4.00
2018-06-23T18:59:18.339Z,4.23
2018-06-23T19:01:47.348Z,6.47
2018-06-23T19:04:16.507Z,3.43
2018-06-23T19:06:45.333Z,3.63
2018-06-23T19:09:14.163Z,4.60
2018-06-23T19:11:42.846Z,3.27
2018-06-23T19:14:11.639Z,4.77
2018-06-23T19:16:40.354Z,4.03
2018-06-23T19:19:09.089Z,3.13
2018-06-23T19:21:37.800Z,2.73
2018-06-23T19:24:06.875Z,4.37
2018-06-23T19:26:35.772Z,3.13
2018-06-23T19:29:04.841Z,3.50
2018-06-23T19:31:33.728Z,2.70
2018-06-23T19:34:03.193Z,3.13
2018-06-23T19:36:32.044Z,2.97
2018-06-23T19:39:00.818Z,4.53
2018-06-23T19:41:30.395Z,2.90
2018-06-23T19:43:59.195Z,2.97
2018-06-23T19:46:27.788Z,4.67
2018-06-23T19:48:56.698Z,2.87
2018-06-23T19:51:25.711Z,2.77
2018-06-23T19:53:54.533Z,4.30
2018-06-23T19:56:23.227Z,3.67
2018-06-23T19:58:51.849Z,3.57
2018-06-23T20:01:20.492Z,2.80
2018-06-23T20:03:49.195Z,6.10
2018-06-23T20:06:17.806Z,2.93
2018-06-23T20:08:46.491Z,3.93
2018-06-23T20:11:15.159Z,2.50
2018-06-23T20:13:43.719Z,3.10
2018-06-23T20:16:12.430Z,5.63
2018-06-23T20:18:41.111Z,2.70
2018-06-23T20:21:09.769Z,4.57
2018-06-23T20:23:38.676Z,2.80
2018-06-23T20:26:07.292Z,2.83
2018-06-23T20:28:35.896Z,3.17
2018-06-23T20:31:04.907Z,3.43
2018-06-23T20:33:33.576Z,4.20
2018-06-23T20:36:02.250Z,4.53
2018-06-23T20:38:30.923Z,6.03
2018-06-23T20:40:59.507Z,6.10
2018-06-23T20:43:28.134Z,5.17
2018-06-23T20:45:57.562Z,4.27
2018-06-23T20:48:26.572Z,8.50
2018-06-23T20:50:55.379Z,5.60
2018-06-23T20:53:24.498Z,4.83
2018-06-23T20:55:53.420Z,6.43
2018-06-23T20:58:22.639Z,5.87
2018-06-23T21:00:51.259Z,5.53
2018-06-23T21:03:20.002Z,5.40
2018-06-23T21:05:48.638Z,4.17
2018-06-23T21:08:17.312Z,3.93
2018-06-23T21:10:47.296Z,5.70
2018-06-23T21:13:15.902Z,5.63
2018-06-23T21:15:44.530Z,4.43
2018-06-23T21:18:13.558Z,3.90
2018-06-23T21:20:42.214Z,2.90
2018-06-23T21:23:11.179Z,6.03
2018-06-23T21:25:39.798Z,3.27
2018-06-23T21:28:08.498Z,3.17
2018-06-23T21:30:37.088Z,5.20
2018-06-23T21:33:05.731Z,5.67
2018-06-23T21:35:34.375Z,2.60
2018-06-23T21:38:03.361Z,3.50
2018-06-23T21:40:32.078Z,3.47
2018-06-23T21:43:00.715Z,3.13
2018-06-23T21:45:29.719Z,4.10
2018-06-23T21:47:58.351Z,5.20
2018-06-23T21:50:26.961Z,4.20
2018-06-23T21:52:55.574Z,4.47
2018-06-23T21:55:24.154Z,3.50
2018-06-23T21:57:52.746Z,2.40
2018-06-23T22:00:30.885Z,3.13
2018-06-23T22:03:00.599Z,2.53
2018-06-23T22:05:29.642Z,4.00
2018-06-23T22:07:58.352Z,4.30
2018-06-23T22:10:27.857Z,3.20
2018-06-23T22:12:56.601Z,2.20
2018-06-23T22:15:25.579Z,3.57
2018-06-23T22:17:54.242Z,2.27
2018-06-23T22:20:22.831Z,2.83
2018-06-23T22:22:52.403Z,2.47
2018-06-23T22:25:21.843Z,3.60
2018-06-23T22:27:50.501Z,2.37
2018-06-23T22:30:19.667Z,2.80
2018-06-23T22:32:48.284Z,4.90
2018-06-23T22:35:16.914Z,2.90
2018-06-23T22:37:45.555Z,2.10
2018-06-23T22:40:14.178Z,2.20
2018-06-23T22:42:42.816Z,2.87
2018-06-23T22:45:11.539Z,3.07
2018-06-23T22:47:40.118Z,2.80
2018-06-23T22:50:09.585Z,3.07
2018-06-23T22:52:38.495Z,2.40
2018-06-23T22:55:07.991Z,3.30
2018-06-23T22:57:36.684Z,2.97
2018-06-23T23:00:09.446Z,3.27
2018-06-23T23:02:38.103Z,2.87
2018-06-23T23:05:07.323Z,3.10
2018-06-23T23:07:36.003Z,6.07
2018-06-23T23:10:04.955Z,4.00
2018-06-23T23:12:33.551Z,2.40
2018-06-23T23:15:02.152Z,2.80
2018-06-23T23:17:30.972Z,3.33
2018-06-23T23:19:59.570Z,3.83
2018-06-23T23:22:28.226Z,6.90
2018-06-23T23:24:56.918Z,6.93
2018-06-23T23:27:25.555Z,6.83
2018-06-23T23:29:54.225Z,7.53
2018-06-23T23:32:22.882Z,5.60
2018-06-23T23:34:51.884Z,6.07
2018-06-23T23:37:20.528Z,6.13
2018-06-23T23:39:49.470Z,6.30
2018-06-23T23:42:18.064Z,5.27
2018-06-23T23:44:46.662Z,5.93
2018-06-23T23:47:15.254Z,6.40
2018-06-23T23:49:43.886Z,4.00
2018-06-23T23:52:12.442Z,2.90
2018-06-23T23:54:41.050Z,2.60
2018-06-23T23:57:09.702Z,3.23
2018-06-23T23:59:38.335Z,3.37
